Terminal Aerodrome Forecast
Issued by NWS Austin/San Antonio, TX

Home | Current Version | Previous Version | Text Only | Print | Product List | Glossary On
Versions: 1 2 3 4 5 6 7 8 9 10 11 12 13 14 15 16 17 18 19 20 21 22 23 24
000
FTUS44 KEWX 201700 RRA
TAFDRT
TAF
KDRT 201743Z 2018/2118 13009KT P6SM OVC010
     FM201900 14009KT P6SM BKN015
     FM202100 14008KT P6SM BKN025
     FM210100 11006KT P6SM BKN035
     FM210500 11006KT P6SM OVC025
     FM211000 11006KT P6SM OVC010
     FM211600 14008KT P6SM OVC015=

USA.gov is the U.S. government's official web portal to all federal, state and local government web resources and services.